Pervane — TCNR8 — position and weather

sailwx.info

Track history (hours):
 
Tides and Currents Weather Stations Pressure Air Temp Water Temp Dewpoint Dewpoint Depression Visibility Wind Speed Wind Dir Waves Ship Positions

Pervane

Last reported at 2017-Nov-25 11:27 UTC. Time now 2017-Nov-25 11:52 UTC.
Position N 36°53' E 030°42'.

Length 13 m.

Type: Passenger vessel. MMSI: 271043692.

Date/timePositionNaut miles runAvg speedWind from/ knotsBaromVisibWave heightAir tempDewpointWater temp
2017-Nov-25 11:27N 36°53' E 030°42'0 0.0
2017-Nov-25 10:51N 36°53' E 030°42'0 0.0
2017-Nov-25 10:27N 36°53' E 030°42'0 0.0
2017-Nov-25 09:39N 36°53' E 030°42'0 0.0
2017-Nov-25 09:21N 36°53' E 030°42'0 0.0
2017-Nov-25 08:57N 36°53' E 030°42'0 0.0
2017-Nov-25 08:27N 36°53' E 030°42'0 0.0
2017-Nov-25 08:00N 36°53' E 030°42'0 0.0
2017-Nov-25 07:27N 36°53' E 030°42'0 0.0
2017-Nov-25 06:51N 36°53' E 030°42'0 0.0
2017-Nov-25 06:30N 36°53' E 030°42'0 0.0
2017-Nov-25 05:57N 36°53' E 030°42'0 0.0
2017-Nov-25 05:27N 36°53' E 030°42'0 0.0
2017-Nov-25 04:57N 36°53' E 030°42'0 0.0
2017-Nov-25 04:30N 36°53' E 030°42'0 0.0
2017-Nov-25 03:54N 36°53' E 030°42'0 0.0
2017-Nov-25 03:30N 36°53' E 030°42'0 0.0
2017-Nov-25 02:57N 36°53' E 030°42'0 0.0
2017-Nov-25 02:21N 36°53' E 030°42'0 0.0
2017-Nov-25 01:57N 36°53' E 030°42'0 0.0
2017-Nov-25 01:30N 36°53' E 030°42'0 0.0
2017-Nov-25 00:57N 36°53' E 030°42'0 0.0
2017-Nov-24 22:15N 36°53' E 030°42'0 0.0
2017-Nov-24 21:51N 36°53' E 030°42'0 0.0
2017-Nov-24 18:27N 36°53' E 030°42'0 0.0
2017-Nov-24 17:57N 36°53' E 030°42'0 0.0
2017-Nov-24 13:33N 36°53' E 030°42'0 0.0
2017-Nov-24 13:15N 36°53' E 030°42'0 0.0
2017-Nov-24 12:12N 36°53' E 030°42'0 0.0
2017-Nov-24 11:12N 36°53' E 030°42'0 0.0
2017-Nov-24 11:00N 36°53' E 030°42'0 0.0
2017-Nov-24 10:27N 36°53' E 030°42'0 0.0
2017-Nov-24 09:39N 36°53' E 030°42'0 0.0
2017-Nov-24 09:27N 36°53' E 030°42'0 0.0
2017-Nov-24 09:00N 36°53' E 030°42'0 0.0
2017-Nov-24 08:27N 36°53' E 030°42'0 0.0
2017-Nov-24 07:57N 36°53' E 030°42'0 0.0
2017-Nov-24 07:15N 36°53' E 030°42'0 0.0
2017-Nov-24 06:51N 36°53' E 030°42'0 0.0
2017-Nov-24 06:12N 36°53' E 030°42'0 0.0
2017-Nov-24 05:54N 36°53' E 030°42'0 0.0
2017-Nov-24 05:27N 36°53' E 030°42'0 0.0
2017-Nov-24 04:57N 36°53' E 030°42'0 0.0
2017-Nov-24 04:21N 36°53' E 030°42'0 0.0
2017-Nov-24 03:45N 36°53' E 030°42'0 0.0
2017-Nov-24 03:30N 36°53' E 030°42'0 0.0
2017-Nov-24 02:15N 36°53' E 030°42'0 0.0
2017-Nov-24 01:57N 36°53' E 030°42'0 0.0
2017-Nov-24 01:27N 36°53' E 030°42'  
2017-Nov-19 14:03N 36°53' E 030°42'1 5.3
2017-Nov-19 13:56N 36°52' E 030°42'3 6.5
2017-Nov-19 13:30N 36°51' E 030°45'0 0.6
2017-Nov-19 13:00N 36°51' E 030°46'3 6.0
2017-Nov-19 12:30N 36°52' E 030°43'1 1.2
2017-Nov-19 11:55N 36°53' E 030°42'0 0.0
2017-Nov-19 11:25N 36°53' E 030°42'0 0.0
2017-Nov-19 10:52N 36°53' E 030°42'0 0.0
2017-Nov-19 10:28N 36°53' E 030°42'0 0.0
2017-Nov-19 09:58N 36°53' E 030°42'0 0.0
2017-Nov-19 09:22N 36°53' E 030°42'0 0.0
2017-Nov-19 08:58N 36°53' E 030°42'0 0.0
2017-Nov-19 08:28N 36°53' E 030°42'0 0.0
2017-Nov-19 07:52N 36°53' E 030°42'0 0.0
2017-Nov-19 07:28N 36°53' E 030°42'0 0.0
2017-Nov-19 06:58N 36°53' E 030°42'0 0.0
2017-Nov-19 06:28N 36°53' E 030°42'0 0.0
2017-Nov-19 05:58N 36°53' E 030°42'0 0.0
2017-Nov-19 05:28N 36°53' E 030°42'0 0.0
2017-Nov-19 04:58N 36°53' E 030°42'0 0.0
2017-Nov-19 04:22N 36°53' E 030°42'0 0.0
2017-Nov-19 03:46N 36°53' E 030°42'0 0.0
2017-Nov-19 03:28N 36°53' E 030°42'0 0.0
2017-Nov-18 22:22N 36°53' E 030°42'0 0.0
2017-Nov-18 21:52N 36°53' E 030°42'0 0.0
2017-Nov-18 21:22N 36°53' E 030°42'0 0.0
2017-Nov-18 14:40N 36°53' E 030°42'0 0.0
2017-Nov-18 14:10N 36°53' E 030°42'0 0.0
2017-Nov-18 13:58N 36°53' E 030°42'0 0.0
2017-Nov-18 13:25N 36°53' E 030°42'0 0.0
2017-Nov-18 12:58N 36°53' E 030°42'0 0.0
2017-Nov-18 12:25N 36°53' E 030°42'0 1.0
2017-Nov-18 12:00N 36°53' E 030°42'3 6.3
2017-Nov-18 11:30N 36°51' E 030°45'0 0.2
2017-Nov-18 10:59N 36°51' E 030°46'3 6.0
2017-Nov-18 10:30N 36°52' E 030°43'1 1.5
2017-Nov-18 09:59N 36°53' E 030°42'0 0.0
2017-Nov-18 09:23N 36°53' E 030°42'0 0.0
2017-Nov-18 08:59N 36°53' E 030°42'1 2.1
2017-Nov-18 08:30N 36°52' E 030°43'1 1.8
2017-Nov-18 07:57N 36°53' E 030°42'0 0.0
2017-Nov-18 07:24N 36°53' E 030°42'0 0.0
2017-Nov-18 06:57N 36°53' E 030°42'0 0.0
2017-Nov-18 06:27N 36°53' E 030°42'0 0.0
2017-Nov-18 05:48N 36°53' E 030°42'0 0.0
2017-Nov-18 05:27N 36°53' E 030°42'0 0.0
2017-Nov-18 04:57N 36°53' E 030°42'0 0.0
2017-Nov-18 04:27N 36°53' E 030°42'0 0.0
2017-Nov-18 03:57N 36°53' E 030°42'0 0.0
2017-Nov-18 03:30N 36°53' E 030°42'0 0.0
2017-Nov-18 03:00N 36°53' E 030°42'0 0.0
2017-Nov-17 21:57N 36°53' E 030°42'0 0.0
2017-Nov-17 20:24N 36°53' E 030°42'0 0.0
2017-Nov-17 19:39N 36°53' E 030°42'0 0.0
2017-Nov-17 19:21N 36°53' E 030°42'0 0.0
2017-Nov-17 18:51N 36°53' E 030°42'0 0.0
2017-Nov-17 18:24N 36°53' E 030°42'0 0.0
2017-Nov-17 14:39N 36°53' E 030°42'0 0.0
2017-Nov-17 14:21N 36°53' E 030°42'0 0.0
2017-Nov-17 13:45N 36°53' E 030°42'0 0.0
2017-Nov-17 13:30N 36°53' E 030°42'0 0.0
2017-Nov-17 12:57N 36°53' E 030°42'0 0.0
2017-Nov-17 12:24N 36°53' E 030°42'0 0.0
2017-Nov-17 12:00N 36°53' E 030°42'0 0.0
2017-Nov-17 11:21N 36°53' E 030°42'0 0.0
2017-Nov-17 10:45N 36°53' E 030°42'0 0.0
2017-Nov-17 10:21N 36°53' E 030°42'0 0.0
2017-Nov-17 06:57N 36°53' E 030°42'0 0.0
2017-Nov-17 06:30N 36°53' E 030°42'0 0.0
2017-Nov-17 06:00N 36°53' E 030°42'0 0.0
2017-Nov-17 05:21N 36°53' E 030°42'0 0.0
2017-Nov-17 04:57N 36°53' E 030°42'0 0.0
2017-Nov-17 04:27N 36°53' E 030°42'0 0.0
2017-Nov-17 03:57N 36°53' E 030°42'0 0.0
2017-Nov-17 03:27N 36°53' E 030°42'0 0.0
2017-Nov-17 02:48N 36°53' E 030°42'0 0.0
2017-Nov-16 22:29N 36°53' E 030°42'0 0.0
2017-Nov-16 21:59N 36°53' E 030°42'0 0.0
2017-Nov-16 21:08N 36°53' E 030°42'0 0.0
2017-Nov-16 20:41N 36°53' E 030°42'0 0.0
2017-Nov-16 20:26N 36°53' E 030°42'0 0.0
2017-Nov-16 19:56N 36°53' E 030°42'0 0.0
2017-Nov-16 19:23N 36°53' E 030°42'0 0.0
2017-Nov-16 14:32N 36°53' E 030°42'0 0.0
2017-Nov-16 14:20N 36°53' E 030°42'0 0.0
2017-Nov-16 13:56N 36°53' E 030°42'0 0.0
2017-Nov-16 13:14N 36°53' E 030°42'1 2.6
2017-Nov-16 13:00N 36°52' E 030°42'3 6.0
2017-Nov-16 12:27N 36°51' E 030°46'0 0.5
2017-Nov-16 12:00N 36°51' E 030°46'3 6.1
2017-Nov-16 11:30N 36°52' E 030°43'1 0.4
2017-Nov-16 09:43N 36°53' E 030°42'1 4.1
2017-Nov-16 09:30N 36°52' E 030°43'3 3.1
2017-Nov-16 08:32N 36°51' E 030°46'0 6.3
2017-Nov-16 08:30N 36°51' E 030°46'3 6.2
2017-Nov-16 08:00N 36°52' E 030°43'1 0.5
2017-Nov-16 06:32N 36°53' E 030°42'0 0.0
2017-Nov-16 06:29N 36°53' E 030°42'0 0.0
2017-Nov-16 05:59N 36°53' E 030°42'0 0.0
2017-Nov-15 12:30N 36°53' E 030°42'0 0.8
2017-Nov-15 12:00N 36°53' E 030°42'  
Track history (hours):
 
Tides and Currents Weather Stations Pressure Air Temp Water Temp Dewpoint Dewpoint Depression Visibility Wind Speed Wind Dir Waves Ship Positions

Pervane

Last reported at 2017-Nov-25 11:27 UTC. Time now 2017-Nov-25 11:52 UTC.
Position N 36°53' E 030°42'.

Length 13 m.

Type: Passenger vessel. MMSI: 271043692.

Date/timePositionNaut miles runAvg speedWind from/ knotsBaromVisibWave heightAir tempDewpointWater temp
2017-Nov-25 11:27N 36°53' E 030°42'0 0.0
2017-Nov-25 10:51N 36°53' E 030°42'0 0.0
2017-Nov-25 10:27N 36°53' E 030°42'0 0.0
2017-Nov-25 09:39N 36°53' E 030°42'0 0.0
2017-Nov-25 09:21N 36°53' E 030°42'0 0.0
2017-Nov-25 08:57N 36°53' E 030°42'0 0.0
2017-Nov-25 08:27N 36°53' E 030°42'0 0.0
2017-Nov-25 08:00N 36°53' E 030°42'0 0.0
2017-Nov-25 07:27N 36°53' E 030°42'0 0.0
2017-Nov-25 06:51N 36°53' E 030°42'0 0.0
2017-Nov-25 06:30N 36°53' E 030°42'0 0.0
2017-Nov-25 05:57N 36°53' E 030°42'0 0.0
2017-Nov-25 05:27N 36°53' E 030°42'0 0.0
2017-Nov-25 04:57N 36°53' E 030°42'0 0.0
2017-Nov-25 04:30N 36°53' E 030°42'0 0.0
2017-Nov-25 03:54N 36°53' E 030°42'0 0.0
2017-Nov-25 03:30N 36°53' E 030°42'0 0.0
2017-Nov-25 02:57N 36°53' E 030°42'0 0.0
2017-Nov-25 02:21N 36°53' E 030°42'0 0.0
2017-Nov-25 01:57N 36°53' E 030°42'0 0.0
2017-Nov-25 01:30N 36°53' E 030°42'0 0.0
2017-Nov-25 00:57N 36°53' E 030°42'0 0.0
2017-Nov-24 22:15N 36°53' E 030°42'0 0.0
2017-Nov-24 21:51N 36°53' E 030°42'0 0.0
2017-Nov-24 18:27N 36°53' E 030°42'0 0.0
2017-Nov-24 17:57N 36°53' E 030°42'0 0.0
2017-Nov-24 13:33N 36°53' E 030°42'0 0.0
2017-Nov-24 13:15N 36°53' E 030°42'0 0.0
2017-Nov-24 12:12N 36°53' E 030°42'0 0.0
2017-Nov-24 11:12N 36°53' E 030°42'0 0.0
2017-Nov-24 11:00N 36°53' E 030°42'0 0.0
2017-Nov-24 10:27N 36°53' E 030°42'0 0.0
2017-Nov-24 09:39N 36°53' E 030°42'0 0.0
2017-Nov-24 09:27N 36°53' E 030°42'0 0.0
2017-Nov-24 09:00N 36°53' E 030°42'0 0.0
2017-Nov-24 08:27N 36°53' E 030°42'0 0.0
2017-Nov-24 07:57N 36°53' E 030°42'0 0.0
2017-Nov-24 07:15N 36°53' E 030°42'0 0.0
2017-Nov-24 06:51N 36°53' E 030°42'0 0.0
2017-Nov-24 06:12N 36°53' E 030°42'0 0.0
2017-Nov-24 05:54N 36°53' E 030°42'0 0.0
2017-Nov-24 05:27N 36°53' E 030°42'0 0.0
2017-Nov-24 04:57N 36°53' E 030°42'0 0.0
2017-Nov-24 04:21N 36°53' E 030°42'0 0.0
2017-Nov-24 03:45N 36°53' E 030°42'0 0.0
2017-Nov-24 03:30N 36°53' E 030°42'0 0.0
2017-Nov-24 02:15N 36°53' E 030°42'0 0.0
2017-Nov-24 01:57N 36°53' E 030°42'0 0.0
2017-Nov-24 01:27N 36°53' E 030°42'  
2017-Nov-19 14:03N 36°53' E 030°42'1 5.3
2017-Nov-19 13:56N 36°52' E 030°42'3 6.5
2017-Nov-19 13:30N 36°51' E 030°45'0 0.6
2017-Nov-19 13:00N 36°51' E 030°46'3 6.0
2017-Nov-19 12:30N 36°52' E 030°43'1 1.2
2017-Nov-19 11:55N 36°53' E 030°42'0 0.0
2017-Nov-19 11:25N 36°53' E 030°42'0 0.0
2017-Nov-19 10:52N 36°53' E 030°42'0 0.0
2017-Nov-19 10:28N 36°53' E 030°42'0 0.0
2017-Nov-19 09:58N 36°53' E 030°42'0 0.0
2017-Nov-19 09:22N 36°53' E 030°42'0 0.0
2017-Nov-19 08:58N 36°53' E 030°42'0 0.0
2017-Nov-19 08:28N 36°53' E 030°42'0 0.0
2017-Nov-19 07:52N 36°53' E 030°42'0 0.0
2017-Nov-19 07:28N 36°53' E 030°42'0 0.0
2017-Nov-19 06:58N 36°53' E 030°42'0 0.0
2017-Nov-19 06:28N 36°53' E 030°42'0 0.0
2017-Nov-19 05:58N 36°53' E 030°42'0 0.0
2017-Nov-19 05:28N 36°53' E 030°42'0 0.0
2017-Nov-19 04:58N 36°53' E 030°42'0 0.0
2017-Nov-19 04:22N 36°53' E 030°42'0 0.0
2017-Nov-19 03:46N 36°53' E 030°42'0 0.0
2017-Nov-19 03:28N 36°53' E 030°42'0 0.0
2017-Nov-18 22:22N 36°53' E 030°42'0 0.0
2017-Nov-18 21:52N 36°53' E 030°42'0 0.0
2017-Nov-18 21:22N 36°53' E 030°42'0 0.0
2017-Nov-18 14:40N 36°53' E 030°42'0 0.0
2017-Nov-18 14:10N 36°53' E 030°42'0 0.0
2017-Nov-18 13:58N 36°53' E 030°42'0 0.0
2017-Nov-18 13:25N 36°53' E 030°42'0 0.0
2017-Nov-18 12:58N 36°53' E 030°42'0 0.0
2017-Nov-18 12:25N 36°53' E 030°42'0 1.0
2017-Nov-18 12:00N 36°53' E 030°42'3 6.3
2017-Nov-18 11:30N 36°51' E 030°45'0 0.2
2017-Nov-18 10:59N 36°51' E 030°46'3 6.0
2017-Nov-18 10:30N 36°52' E 030°43'1 1.5
2017-Nov-18 09:59N 36°53' E 030°42'0 0.0
2017-Nov-18 09:23N 36°53' E 030°42'0 0.0
2017-Nov-18 08:59N 36°53' E 030°42'1 2.1
2017-Nov-18 08:30N 36°52' E 030°43'1 1.8
2017-Nov-18 07:57N 36°53' E 030°42'0 0.0
2017-Nov-18 07:24N 36°53' E 030°42'0 0.0
2017-Nov-18 06:57N 36°53' E 030°42'0 0.0
2017-Nov-18 06:27N 36°53' E 030°42'0 0.0
2017-Nov-18 05:48N 36°53' E 030°42'0 0.0
2017-Nov-18 05:27N 36°53' E 030°42'0 0.0
2017-Nov-18 04:57N 36°53' E 030°42'0 0.0
2017-Nov-18 04:27N 36°53' E 030°42'0 0.0
2017-Nov-18 03:57N 36°53' E 030°42'0 0.0
2017-Nov-18 03:30N 36°53' E 030°42'0 0.0
2017-Nov-18 03:00N 36°53' E 030°42'0 0.0
2017-Nov-17 21:57N 36°53' E 030°42'0 0.0
2017-Nov-17 20:24N 36°53' E 030°42'0 0.0
2017-Nov-17 19:39N 36°53' E 030°42'0 0.0
2017-Nov-17 19:21N 36°53' E 030°42'0 0.0
2017-Nov-17 18:51N 36°53' E 030°42'0 0.0
2017-Nov-17 18:24N 36°53' E 030°42'0 0.0
2017-Nov-17 14:39N 36°53' E 030°42'0 0.0
2017-Nov-17 14:21N 36°53' E 030°42'0 0.0
2017-Nov-17 13:45N 36°53' E 030°42'0 0.0
2017-Nov-17 13:30N 36°53' E 030°42'0 0.0
2017-Nov-17 12:57N 36°53' E 030°42'0 0.0
2017-Nov-17 12:24N 36°53' E 030°42'0 0.0
2017-Nov-17 12:00N 36°53' E 030°42'0 0.0
2017-Nov-17 11:21N 36°53' E 030°42'0 0.0
2017-Nov-17 10:45N 36°53' E 030°42'0 0.0
2017-Nov-17 10:21N 36°53' E 030°42'0 0.0
2017-Nov-17 06:57N 36°53' E 030°42'0 0.0
2017-Nov-17 06:30N 36°53' E 030°42'0 0.0
2017-Nov-17 06:00N 36°53' E 030°42'0 0.0
2017-Nov-17 05:21N 36°53' E 030°42'0 0.0
2017-Nov-17 04:57N 36°53' E 030°42'0 0.0
2017-Nov-17 04:27N 36°53' E 030°42'0 0.0
2017-Nov-17 03:57N 36°53' E 030°42'0 0.0
2017-Nov-17 03:27N 36°53' E 030°42'0 0.0
2017-Nov-17 02:48N 36°53' E 030°42'0 0.0
2017-Nov-16 22:29N 36°53' E 030°42'0 0.0
2017-Nov-16 21:59N 36°53' E 030°42'0 0.0
2017-Nov-16 21:08N 36°53' E 030°42'0 0.0
2017-Nov-16 20:41N 36°53' E 030°42'0 0.0
2017-Nov-16 20:26N 36°53' E 030°42'0 0.0
2017-Nov-16 19:56N 36°53' E 030°42'0 0.0
2017-Nov-16 19:23N 36°53' E 030°42'0 0.0
2017-Nov-16 14:32N 36°53' E 030°42'0 0.0
2017-Nov-16 14:20N 36°53' E 030°42'0 0.0
2017-Nov-16 13:56N 36°53' E 030°42'0 0.0
2017-Nov-16 13:14N 36°53' E 030°42'1 2.6
2017-Nov-16 13:00N 36°52' E 030°42'3 6.0
2017-Nov-16 12:27N 36°51' E 030°46'0 0.5
2017-Nov-16 12:00N 36°51' E 030°46'3 6.1
2017-Nov-16 11:30N 36°52' E 030°43'1 0.4
2017-Nov-16 09:43N 36°53' E 030°42'1 4.1
2017-Nov-16 09:30N 36°52' E 030°43'3 3.1
2017-Nov-16 08:32N 36°51' E 030°46'0 6.3
2017-Nov-16 08:30N 36°51' E 030°46'3 6.2
2017-Nov-16 08:00N 36°52' E 030°43'1 0.5
2017-Nov-16 06:32N 36°53' E 030°42'0 0.0
2017-Nov-16 06:29N 36°53' E 030°42'0 0.0
2017-Nov-16 05:59N 36°53' E 030°42'0 0.0
2017-Nov-15 12:30N 36°53' E 030°42'0 0.8
2017-Nov-15 12:00N 36°53' E 030°42'  

Dump ship's entire track history